Time;durP1;ratioP1;P1;durP2;ratioP2;P2;SDS_P1;SDS_P2;PMS_P1;PMS_P2;Temp;Humidity;BMP_temperature;BMP_pressure;BME280_temperature;BME280_humidity;BME280_pressure;Samples;Min_cycle;Max_cycle;Signal;HPM_P1;HPM_P2
2021/12/25 00:00:38;;;;;;;9.03;8.13;;;;;;;4.67;100.00;96876.81;4944477;28;20313;-71
2021/12/25 00:03:16;;;;;;;8.13;7.33;;;;;;;4.66;100.00;96862.03;4940169;28;20221;-70
2021/12/25 00:05:52;;;;;;;7.67;6.97;;;;;;;4.75;100.00;96869.00;4951186;28;20250;-71
2021/12/25 00:08:21;;;;;;;8.07;7.27;;;;;;;4.74;100.00;96868.19;4939237;28;20265;-71
2021/12/25 00:10:49;;;;;;;7.53;6.83;;;;;;;4.75;100.00;96869.00;4920978;28;20215;-70
2021/12/25 00:13:18;;;;;;;8.07;7.43;;;;;;;4.76;100.00;96860.97;4933884;28;20332;-69
2021/12/25 00:15:47;;;;;;;7.80;7.10;;;;;;;4.69;100.00;96859.94;4953493;28;20341;-70
2021/12/25 00:18:15;;;;;;;7.23;6.60;;;;;;;4.65;100.00;96863.88;4934748;28;20339;-69
2021/12/25 00:20:43;;;;;;;7.57;6.90;;;;;;;4.66;100.00;96865.50;4959745;28;20206;-71
2021/12/25 00:23:12;;;;;;;8.27;7.47;;;;;;;4.67;100.00;96861.91;4952875;28;20202;-70
2021/12/25 00:25:44;;;;;;;7.70;7.10;;;;;;;4.69;100.00;96857.31;4923601;28;20323;-71
2021/12/25 00:28:24;;;;;;;8.57;7.77;;;;;;;4.71;100.00;96863.25;4954794;28;20210;-68
2021/12/25 00:31:06;;;;;;;8.13;7.33;;;;;;;4.67;100.00;96855.81;4958338;28;20206;-71
2021/12/25 00:33:50;;;;;;;7.87;7.17;;;;;;;4.69;100.00;96861.72;4933866;28;20841;-71
2021/12/25 00:36:20;;;;;;;6.90;6.20;;;;;;;4.68;100.00;96857.47;4954189;28;20240;-70
2021/12/25 00:38:51;;;;;;;6.87;6.27;;;;;;;4.68;100.00;96860.09;4959055;28;20233;-72
2021/12/25 00:41:21;;;;;;;7.23;6.53;;;;;;;4.71;100.00;96863.25;4913441;28;20225;-70
2021/12/25 00:43:49;;;;;;;8.30;7.50;;;;;;;4.82;100.00;96867.41;4960097;28;20215;-71
2021/12/25 00:46:17;;;;;;;8.50;7.70;;;;;;;4.78;100.00;96869.50;4952748;28;20226;-70
2021/12/25 00:48:45;;;;;;;8.00;7.13;;;;;;;4.72;100.00;96864.88;4948918;28;20218;-71
2021/12/25 00:51:13;;;;;;;7.10;6.57;;;;;;;4.70;100.00;96868.63;4956639;28;20525;-69
2021/12/25 00:53:42;;;;;;;7.17;6.47;;;;;;;4.70;100.00;96864.22;4959327;28;20720;-72
2021/12/25 00:56:11;;;;;;;7.37;6.63;;;;;;;4.71;100.00;96863.25;4933725;28;20253;-70
2021/12/25 00:58:39;;;;;;;8.57;7.77;;;;;;;4.73;100.00;96860.44;4947699;28;20646;-71
2021/12/25 01:01:07;;;;;;;8.20;7.40;;;;;;;4.73;100.00;96860.44;4958222;28;20206;-69
2021/12/25 01:03:36;;;;;;;7.97;7.17;;;;;;;4.74;100.00;96859.50;4953819;28;20230;-72
2021/12/25 01:06:04;;;;;;;7.93;7.03;;;;;;;4.67;100.00;96856.66;4946817;28;20646;-70
2021/12/25 01:08:32;;;;;;;7.83;7.13;;;;;;;4.69;100.00;96859.09;4956840;28;20899;-71
2021/12/25 01:11:00;;;;;;;9.27;8.30;;;;;;;4.68;100.00;96862.72;4949381;28;20647;-71
2021/12/25 01:13:33;;;;;;;7.77;6.97;;;;;;;4.68;100.00;96862.72;4925192;28;20499;-72
2021/12/25 01:16:15;;;;;;;7.57;6.87;;;;;;;4.68;100.00;96873.22;4953527;28;20953;-71
2021/12/25 01:21:50;;;;;;;6.93;6.23;;;;;;;4.67;100.00;96861.91;4948088;28;20518;-71
2021/12/25 01:24:42;;;;;;;8.07;7.27;;;;;;;4.72;100.00;96858.81;4959534;28;20203;-71
2021/12/25 01:30:07;;;;;;;6.70;6.20;;;;;;;4.70;100.00;96866.84;4926281;28;20870;-71
2021/12/25 01:33:00;;;;;;;6.90;6.40;;;;;;;4.68;100.00;96865.34;4959517;28;20630;-70
2021/12/25 01:38:39;;;;;;;7.43;6.77;;;;;;;4.73;100.00;96873.56;4929028;28;20230;-71
2021/12/25 01:41:16;;;;;;;6.97;6.27;;;;;;;4.75;100.00;96872.44;4945787;28;20221;-68
2021/12/25 01:49:17;;;;;;;7.13;6.43;;;;;;;4.69;100.00;96862.56;4957952;28;20221;-71
2021/12/25 01:51:45;;;;;;;6.73;6.13;;;;;;;4.68;100.00;96866.19;4947438;28;20682;-70
2021/12/25 01:54:13;;;;;;;7.90;7.10;;;;;;;4.71;100.00;96872.91;4956097;28;20249;-72
2021/12/25 01:56:41;;;;;;;7.20;6.47;;;;;;;4.71;100.00;96867.66;4944698;28;20234;-69
2021/12/25 01:59:09;;;;;;;7.50;6.63;;;;;;;4.77;100.00;96857.38;4926142;28;20257;-72
2021/12/25 02:01:39;;;;;;;8.33;7.53;;;;;;;4.76;100.00;96863.59;4957453;28;20470;-70
2021/12/25 02:04:07;;;;;;;7.60;7.00;;;;;;;4.71;100.00;96858.00;4947389;28;21406;-69
2021/12/25 02:06:36;;;;;;;7.90;7.20;;;;;;;4.67;100.00;96864.53;4946572;28;20881;-71
2021/12/25 02:09:04;;;;;;;7.53;6.73;;;;;;;4.68;100.00;96858.31;4955565;28;20209;-69
2021/12/25 02:11:32;;;;;;;7.23;6.53;;;;;;;4.67;100.00;96856.66;4957527;28;20208;-72
2021/12/25 02:14:00;;;;;;;7.83;7.13;;;;;;;4.67;100.00;96867.16;4942593;28;20480;-71
2021/12/25 02:16:38;;;;;;;8.13;7.33;;;;;;;4.62;100.00;96864.97;4924891;28;20237;-71
2021/12/25 02:19:12;;;;;;;8.10;7.30;;;;;;;4.63;100.00;96866.63;4953313;28;20741;-71
2021/12/25 02:21:41;;;;;;;6.87;6.27;;;;;;;4.67;100.00;96861.06;4944804;28;20225;-69
2021/12/25 02:24:12;;;;;;;5.87;5.37;;;;;;;4.60;100.00;96848.56;4953240;28;20900;-72
2021/12/25 02:26:43;;;;;;;6.97;6.40;;;;;;;4.56;100.00;96857.72;4942776;28;20491;-72
2021/12/25 02:29:11;;;;;;;6.63;6.13;;;;;;;4.54;100.00;96859.69;4945491;28;20717;-72
2021/12/25 02:31:39;;;;;;;7.93;7.03;;;;;;;4.59;100.00;96854.00;4918080;28;20384;-72
2021/12/25 02:34:07;;;;;;;7.90;7.10;;;;;;;4.60;100.00;96855.63;4944919;28;20225;-71
2021/12/25 02:36:35;;;;;;;7.10;6.40;;;;;;;4.64;100.00;96857.78;4943554;28;20673;-70
2021/12/25 02:39:05;;;;;;;7.90;7.10;;;;;;;4.58;100.00;96852.34;4956333;28;20210;-71
2021/12/25 02:41:33;;;;;;;7.20;6.50;;;;;;;4.54;100.00;96854.44;4952099;28;20333;-70
2021/12/25 02:44:01;;;;;;;7.30;6.60;;;;;;;4.54;100.00;96848.34;4946366;28;20401;-72
2021/12/25 02:46:29;;;;;;;8.00;7.20;;;;;;;4.55;100.00;96853.47;4922348;28;20230;-70
2021/12/25 02:48:58;;;;;;;8.43;7.63;;;;;;;4.52;100.00;96848.53;4954428;28;20327;-73
2021/12/25 02:51:27;;;;;;;7.73;6.93;;;;;;;4.50;100.00;96845.22;4954648;28;20206;-70
2021/12/25 02:53:55;;;;;;;7.37;6.67;;;;;;;4.49;100.00;96838.34;4945406;28;20674;-72
2021/12/25 02:56:25;;;;;;;7.93;7.13;;;;;;;4.44;100.00;96833.53;4955366;28;20226;-71
2021/12/25 02:58:52;;;;;;;6.83;6.13;;;;;;;4.45;100.00;96829.94;4941966;28;20222;-70
2021/12/25 03:01:21;;;;;;;7.97;7.17;;;;;;;4.46;100.00;96838.66;4921560;28;24777;-73
2021/12/25 03:03:50;;;;;;;8.57;7.47;;;;;;;4.42;100.00;96838.13;4954801;28;20289;-72
2021/12/25 03:06:18;;;;;;;7.83;7.13;;;;;;;4.46;100.00;96838.66;4953319;28;20226;-71
2021/12/25 03:08:46;;;;;;;9.17;7.47;;;;;;;4.46;100.00;96838.66;4946530;28;20218;-72
2021/12/25 03:11:14;;;;;;;9.50;7.87;;;;;;;4.42;100.00;96838.13;4952286;28;20206;-71
2021/12/25 03:13:55;;;;;;;7.83;7.13;;;;;;;4.42;100.00;96837.31;4944565;28;20218;-72
2021/12/25 03:16:24;;;;;;;7.40;6.60;;;;;;;4.38;100.00;96830.72;4951912;28;20614;-72
2021/12/25 03:18:55;;;;;;;7.83;6.83;;;;;;;4.38;100.00;96828.91;4923505;28;20337;-70
2021/12/25 03:21:23;;;;;;;7.60;7.00;;;;;;;4.43;100.00;96817.97;4954608;28;20456;-72
2021/12/25 03:23:53;;;;;;;8.23;7.40;;;;;;;4.43;100.00;96818.78;4947585;28;20218;-70
2021/12/25 03:26:21;;;;;;;9.23;8.27;;;;;;;4.39;100.00;96814.81;4953970;28;20226;-72
2021/12/25 03:28:53;;;;;;;9.27;8.37;;;;;;;4.40;100.00;96810.41;4956547;28;20217;-71
2021/12/25 03:31:22;;;;;;;9.07;8.17;;;;;;;4.42;100.00;96814.50;4946118;28;20431;-71
2021/12/25 03:33:52;;;;;;;8.27;7.47;;;;;;;4.32;100.00;96809.34;4923918;28;20357;-70
2021/12/25 03:36:20;;;;;;;8.60;7.70;;;;;;;4.24;100.00;96821.63;4952135;28;20503;-72
2021/12/25 03:38:49;;;;;;;7.80;6.63;;;;;;;4.23;100.00;96823.41;4948011;28;20671;-72
2021/12/25 03:41:18;;;;;;;7.83;6.93;;;;;;;4.19;100.00;96817.66;4953514;28;20337;-73
2021/12/25 03:43:46;;;;;;;7.77;6.60;;;;;;;4.20;100.00;96826.31;4957177;28;20594;-72
2021/12/25 03:46:17;;;;;;;6.97;6.37;;;;;;;4.12;100.00;96821.84;4938645;28;20335;-72
2021/12/25 03:49:02;;;;;;;7.13;6.50;;;;;;;4.10;100.00;96817.72;4924133;28;20594;-71
2021/12/25 03:59:56;;;;;;;6.87;6.20;;;;;;;4.03;100.00;96810.47;4955444;28;20218;-71
2021/12/25 04:02:32;;;;;;;6.30;5.77;;;;;;;4.02;100.00;96810.63;4943313;28;20944;-71
2021/12/25 04:05:03;;;;;;;8.10;7.30;;;;;;;4.04;100.00;96811.28;4919433;28;20375;-70
2021/12/25 04:07:58;;;;;;;7.97;6.80;;;;;;;4.02;100.00;96806.22;4953583;28;20695;-71
2021/12/25 04:10:27;;;;;;;6.73;6.13;;;;;;;4.00;100.00;96815.19;4945744;28;20297;-71
2021/12/25 04:12:55;;;;;;;8.37;7.03;;;;;;;4.02;100.00;96808.84;4955500;28;20620;-69
2021/12/25 04:15:23;;;;;;;7.47;6.77;;;;;;;4.03;100.00;96807.84;4953964;28;20444;-70
2021/12/25 04:17:53;;;;;;;7.50;6.80;;;;;;;4.04;100.00;96809.50;4942140;28;20218;-70
2021/12/25 04:20:21;;;;;;;7.40;6.70;;;;;;;4.06;100.00;96801.47;4930309;28;20750;-72
2021/12/25 04:22:50;;;;;;;7.17;6.57;;;;;;;4.08;100.00;96807.38;4956137;28;20206;-69
2021/12/25 04:25:23;;;;;;;6.63;6.03;;;;;;;4.05;100.00;96800.66;4945991;28;20400;-71
2021/12/25 04:27:51;;;;;;;6.70;6.13;;;;;;;4.07;100.00;96797.06;4959461;28;20218;-69
2021/12/25 04:30:29;;;;;;;6.53;5.93;;;;;;;4.09;100.00;96806.41;4956538;28;20261;-70
2021/12/25 05:03:36;;;;;;;11.37;7.40;;;;;;;4.12;100.00;96784.31;4943207;28;20661;-74
2021/12/25 05:06:06;;;;;;;7.07;6.43;;;;;;;4.11;100.00;96796.59;4921341;28;20242;-70
2021/12/25 05:08:34;;;;;;;7.73;7.03;;;;;;;4.17;100.00;96790.75;4955801;28;20501;-70
2021/12/25 05:11:02;;;;;;;6.97;6.27;;;;;;;4.12;100.00;96797.44;4956137;28;20551;-70
2021/12/25 05:13:32;;;;;;;7.07;6.37;;;;;;;4.11;100.00;96803.66;4939654;28;20733;-71
2021/12/25 05:16:02;;;;;;;7.97;6.40;;;;;;;4.18;100.00;96789.78;4954092;28;20233;-70
2021/12/25 05:18:30;;;;;;;7.90;7.20;;;;;;;4.13;100.00;96788.59;4929338;28;21119;-70
2021/12/25 05:20:58;;;;;;;7.07;6.33;;;;;;;4.11;100.00;96788.72;4927838;28;20222;-71
2021/12/25 05:23:27;;;;;;;7.03;6.33;;;;;;;4.02;100.00;96787.84;4951431;28;20210;-72
2021/12/25 05:25:55;;;;;;;6.70;6.13;;;;;;;4.02;100.00;96795.72;4959189;28;20233;-71
2021/12/25 05:28:27;;;;;;;8.10;7.07;;;;;;;4.04;100.00;96796.41;4944453;28;20473;-69
2021/12/25 05:30:56;;;;;;;6.93;5.73;;;;;;;4.03;100.00;96794.75;4955397;28;20689;-71
2021/12/25 05:33:24;;;;;;;7.40;6.70;;;;;;;4.04;100.00;96790.31;4939041;28;20217;-70
2021/12/25 05:35:52;;;;;;;7.30;6.37;;;;;;;4.07;100.00;96789.19;4952487;28;20607;-72
2021/12/25 05:38:21;;;;;;;7.57;6.87;;;;;;;4.01;100.00;96796.69;4927533;28;20320;-70
2021/12/25 05:40:51;;;;;;;7.37;6.67;;;;;;;4.01;100.00;96790.63;4957606;28;20221;-72
2021/12/25 05:43:19;;;;;;;6.80;6.20;;;;;;;4.05;100.00;96790.16;4947098;28;20612;-70
2021/12/25 05:45:47;;;;;;;7.80;6.50;;;;;;;4.02;100.00;96797.50;4954687;28;20239;-72
2021/12/25 05:48:15;;;;;;;6.00;5.50;;;;;;;4.02;100.00;96793.09;4955424;28;20277;-70
2021/12/25 05:50:43;;;;;;;6.43;5.93;;;;;;;4.03;100.00;96792.13;4951781;28;20321;-72
2021/12/25 05:53:11;;;;;;;7.27;6.57;;;;;;;4.06;100.00;96790.97;4928306;28;20218;-70
2021/12/25 05:55:39;;;;;;;7.43;6.37;;;;;;;4.07;100.00;96794.44;4954777;28;20222;-72
2021/12/25 05:58:09;;;;;;;6.73;6.23;;;;;;;4.03;100.00;96791.28;4954163;28;20214;-70
2021/12/25 06:00:40;;;;;;;6.93;6.33;;;;;;;4.01;100.00;96788.00;4930971;28;20378;-72
2021/12/25 06:03:08;;;;;;;6.43;5.90;;;;;;;4.00;100.00;96797.69;4945292;28;20355;-70
2021/12/25 06:05:36;;;;;;;7.73;7.00;;;;;;;4.04;100.00;96791.16;4935385;28;20225;-72
2021/12/25 06:08:05;;;;;;;6.47;5.87;;;;;;;4.01;100.00;96799.31;4921836;28;20218;-73
2021/12/25 06:10:34;;;;;;;6.23;5.73;;;;;;;4.03;100.00;96797.38;4952256;28;20439;-72
2021/12/25 06:13:03;;;;;;;7.10;6.40;;;;;;;4.05;100.00;96795.41;4956569;28;20305;-71
2021/12/25 06:15:35;;;;;;;7.73;6.77;;;;;;;4.03;100.00;96800.00;4931183;28;20394;-70
2021/12/25 06:18:06;;;;;;;6.53;5.87;;;;;;;4.03;100.00;96802.63;4958423;28;21096;-71
2021/12/25 06:20:36;;;;;;;5.50;5.03;;;;;;;4.02;100.00;96806.22;4932466;28;20912;-71
2021/12/25 06:23:08;;;;;;;6.57;5.90;;;;;;;4.05;100.00;96800.66;4928361;28;20230;-70
2021/12/25 06:25:37;;;;;;;6.57;5.97;;;;;;;4.04;100.00;96809.50;4950475;28;20206;-73
2021/12/25 06:28:08;;;;;;;6.23;5.67;;;;;;;4.05;100.00;96805.06;4957163;28;20217;-72
2021/12/25 06:30:40;;;;;;;6.60;5.97;;;;;;;4.10;100.00;96808.06;4944259;28;20927;-72
2021/12/25 06:33:09;;;;;;;7.80;7.10;;;;;;;4.13;100.00;96806.94;4956445;28;20277;-71
2021/12/25 06:35:39;;;;;;;7.17;6.53;;;;;;;4.05;100.00;96810.31;4942578;28;20522;-72
2021/12/25 06:38:10;;;;;;;13.93;12.67;;;;;;;4.04;100.00;96814.75;4918780;28;20218;-71
2021/12/25 06:40:42;;;;;;;11.33;10.43;;;;;;;4.03;100.00;96809.63;4952756;28;20218;-71
2021/12/25 06:43:11;;;;;;;10.37;9.47;;;;;;;4.01;100.00;96807.19;4955608;28;20231;-72
2021/12/25 06:45:46;;;;;;;8.80;8.00;;;;;;;4.05;100.00;96807.69;4946019;28;20222;-74
2021/12/25 06:48:16;;;;;;;8.77;7.87;;;;;;;4.05;100.00;96807.69;4952665;28;20232;-72
2021/12/25 06:50:45;;;;;;;7.73;7.03;;;;;;;4.08;100.00;96811.81;4930429;28;20241;-73
2021/12/25 06:53:13;;;;;;;7.27;6.50;;;;;;;4.09;100.00;96806.41;4910352;28;20210;-70
2021/12/25 06:55:41;;;;;;;7.37;6.37;;;;;;;4.08;100.00;96814.44;4951086;28;20210;-74
2021/12/25 06:58:11;;;;;;;6.43;5.83;;;;;;;4.12;100.00;96811.34;4956034;28;20213;-73
2021/12/25 07:00:41;;;;;;;7.90;6.63;;;;;;;4.12;100.00;96813.16;4943103;28;20330;-73
2021/12/25 07:03:10;;;;;;;6.37;5.77;;;;;;;4.12;100.00;96811.34;4951902;28;20226;-72
2021/12/25 07:05:39;;;;;;;7.47;6.10;;;;;;;4.15;100.00;96818.09;4941326;28;20443;-72
2021/12/25 07:08:10;;;;;;;8.73;7.73;;;;;;;4.16;100.00;96817.13;4946914;28;20219;-72
2021/12/25 07:10:38;;;;;;;8.43;7.30;;;;;;;4.18;100.00;96812.53;4922208;28;20313;-72
2021/12/25 07:13:07;;;;;;;8.30;7.47;;;;;;;4.25;100.00;96810.94;4956593;28;20654;-70
2021/12/25 07:15:35;;;;;;;7.30;6.60;;;;;;;4.32;100.00;96817.22;4953012;28;20257;-72
2021/12/25 07:18:06;;;;;;;8.87;7.20;;;;;;;4.21;100.00;96817.47;4947396;28;20476;-73
2021/12/25 07:20:34;;;;;;;7.23;6.53;;;;;;;4.20;100.00;96814.06;4942002;28;20221;-72
2021/12/25 07:23:02;;;;;;;6.97;6.27;;;;;;;4.19;100.00;96819.44;4944276;28;20416;-72
2021/12/25 07:25:30;;;;;;;8.97;6.87;;;;;;;4.19;100.00;96814.19;4920245;28;20225;-70
2021/12/25 07:27:58;;;;;;;9.63;8.73;;;;;;;4.17;100.00;96816.97;4958396;28;20579;-73
2021/12/25 07:30:26;;;;;;;9.80;8.90;;;;;;;4.19;100.00;96822.91;4954328;28;20214;-69
2021/12/25 07:32:54;;;;;;;8.43;7.63;;;;;;;4.19;100.00;96816.81;4946022;28;20214;-73
2021/12/25 07:35:23;;;;;;;7.13;6.50;;;;;;;4.20;100.00;96823.69;4946945;28;20213;-69
2021/12/25 07:37:51;;;;;;;7.33;6.63;;;;;;;4.26;100.00;96828.34;4940041;28;20250;-70
2021/12/25 07:40:19;;;;;;;7.10;6.40;;;;;;;4.24;100.00;96819.00;4919015;28;20550;-69
2021/12/25 07:42:47;;;;;;;6.63;5.97;;;;;;;4.25;100.00;96824.06;4946549;28;20242;-72
2021/12/25 07:45:15;;;;;;;7.40;6.50;;;;;;;4.27;100.00;96823.94;4953394;28;20206;-70
2021/12/25 07:47:56;;;;;;;6.47;5.93;;;;;;;4.28;100.00;96828.19;4952563;28;20237;-72
2021/12/25 07:50:26;;;;;;;7.57;5.53;;;;;;;4.30;100.00;96827.03;4943590;28;20214;-71
2021/12/25 07:52:54;;;;;;;6.40;5.80;;;;;;;4.30;100.00;96823.63;4934420;28;20210;-72
2021/12/25 07:55:22;;;;;;;6.03;5.37;;;;;;;4.29;100.00;96825.41;4933641;28;20222;-70
2021/12/25 07:57:50;;;;;;;5.73;5.10;;;;;;;4.29;100.00;96833.28;4947582;28;20304;-73
2021/12/25 08:00:19;;;;;;;5.67;5.17;;;;;;;4.30;100.00;96829.66;4954126;28;20221;-70
2021/12/25 08:02:47;;;;;;;6.30;5.60;;;;;;;4.32;100.00;96829.53;4956372;28;20233;-72
2021/12/25 08:05:16;;;;;;;6.10;5.53;;;;;;;4.32;100.00;96829.53;4950745;28;20296;-70
2021/12/25 08:07:45;;;;;;;7.03;5.43;;;;;;;4.37;100.00;96829.88;4946426;28;20262;-72
2021/12/25 08:10:13;;;;;;;6.27;5.60;;;;;;;4.35;100.00;96835.28;4948656;28;20209;-69
2021/12/25 08:12:43;;;;;;;8.53;7.80;;;;;;;4.42;100.00;96832.06;4922701;28;20637;-72
2021/12/25 08:15:12;;;;;;;7.13;5.80;;;;;;;4.59;100.00;96839.06;4956119;28;20218;-71
2021/12/25 08:17:40;;;;;;;5.97;5.47;;;;;;;4.63;100.00;96836.94;4955845;28;20484;-72
2021/12/25 08:20:09;;;;;;;6.90;6.20;;;;;;;4.71;100.00;96846.66;4947625;28;20217;-72
2021/12/25 08:22:38;;;;;;;4.87;4.47;;;;;;;4.56;100.00;96849.84;4943087;28;20698;-72
2021/12/25 08:25:08;;;;;;;5.77;5.27;;;;;;;4.38;100.00;96849.09;4949787;28;20347;-69
2021/12/25 08:27:37;;;;;;;7.27;6.53;;;;;;;4.41;100.00;96849.59;4925766;28;22386;-71
2021/12/25 08:30:08;;;;;;;5.40;4.90;;;;;;;4.41;100.00;96854.03;4958339;28;20214;-72
2021/12/25 08:32:36;;;;;;;6.27;5.67;;;;;;;4.37;100.00;96850.06;4955797;28;20853;-72
2021/12/25 08:35:05;;;;;;;5.80;5.30;;;;;;;4.19;100.00;96854.38;4958972;28;20235;-71
2021/12/25 08:37:33;;;;;;;6.93;6.23;;;;;;;4.07;100.00;96855.56;4932338;28;20222;-72
2021/12/25 08:40:01;;;;;;;8.63;7.77;;;;;;;4.12;100.00;96858.53;4943625;28;20246;-72
2021/12/25 08:42:31;;;;;;;8.93;6.00;;;;;;;3.92;100.00;96863.13;4956794;28;20206;-72
2021/12/25 08:45:19;;;;;;;5.83;5.33;;;;;;;3.71;100.00;96866.88;4914129;28;20666;-69
2021/12/25 08:47:50;;;;;;;6.83;5.47;;;;;;;3.80;100.00;96869.56;4958614;28;20234;-70
2021/12/25 08:50:18;;;;;;;6.53;5.93;;;;;;;3.71;100.00;96872.09;4958310;28;20492;-71
2021/12/25 08:52:46;;;;;;;6.43;5.83;;;;;;;3.75;100.00;96868.22;4947371;28;20210;-68
2021/12/25 08:55:14;;;;;;;6.97;5.77;;;;;;;3.75;100.00;96870.84;4939982;28;20237;-71
2021/12/25 08:57:43;;;;;;;7.77;6.40;;;;;;;3.72;100.00;96873.75;4955685;28;20241;-71
2021/12/25 09:00:13;;;;;;;6.17;5.57;;;;;;;3.66;100.00;96870.91;4926214;28;21267;-72
2021/12/25 09:02:41;;;;;;;6.77;6.17;;;;;;;3.86;100.00;96875.03;4954711;28;20777;-71
2021/12/25 09:05:09;;;;;;;4.87;4.40;;;;;;;3.73;100.00;96883.25;4956593;28;20202;-73
2021/12/25 09:07:37;;;;;;;5.87;5.37;;;;;;;3.83;100.00;96877.13;4947969;28;20624;-73
2021/12/25 09:10:06;;;;;;;4.77;4.27;;;;;;;3.88;100.00;96885.38;4935397;28;20376;-73
2021/12/25 09:12:39;;;;;;;4.13;3.73;;;;;;;3.81;100.00;96884.31;4956211;28;20987;-72
2021/12/25 09:15:11;;;;;;;3.63;3.43;;;;;;;3.69;100.00;96891.56;4925137;28;20293;-72
2021/12/25 09:17:40;;;;;;;3.63;3.33;;;;;;;3.68;100.00;96895.16;4945212;28;20242;-73
2021/12/25 09:20:09;;;;;;;3.03;2.80;;;;;;;3.61;100.00;96892.31;4956348;28;20214;-73
2021/12/25 09:22:37;;;;;;;2.97;2.70;;;;;;;3.59;100.00;96896.84;4938733;28;20217;-73
2021/12/25 09:25:06;;;;;;;3.07;2.90;;;;;;;3.54;100.00;96897.31;4930705;28;20444;-73
2021/12/25 09:27:34;;;;;;;3.67;3.43;;;;;;;3.46;100.00;96903.28;4952637;28;20793;-73
2021/12/25 09:30:03;;;;;;;3.00;2.80;;;;;;;3.43;100.00;96890.47;4933625;28;20236;-74
2021/12/25 09:32:34;;;;;;;3.63;3.43;;;;;;;3.45;100.00;96906.06;4954241;28;20213;-72
2021/12/25 09:35:06;;;;;;;3.20;3.00;;;;;;;3.42;100.00;96901.09;4944054;28;20211;-74
2021/12/25 09:37:35;;;;;;;3.50;3.20;;;;;;;3.26;100.00;96905.16;4936228;28;20242;-72
2021/12/25 09:40:05;;;;;;;2.13;2.03;;;;;;;3.25;100.00;96907.94;4934895;28;20213;-73
2021/12/25 09:42:34;;;;;;;2.20;2.10;;;;;;;3.24;100.00;96906.28;4940772;28;20297;-70
2021/12/25 09:45:04;;;;;;;3.10;2.90;;;;;;;3.33;100.00;96910.66;4929175;28;20293;-73
2021/12/25 09:47:34;;;;;;;3.53;3.23;;;;;;;3.17;100.00;96919.13;4953840;28;20357;-71
2021/12/25 09:50:02;;;;;;;2.83;2.70;;;;;;;3.16;100.00;96917.47;4956687;28;20225;-73
2021/12/25 09:52:30;;;;;;;3.70;3.47;;;;;;;3.10;100.00;96912.81;4951428;28;20213;-70
2021/12/25 09:54:59;;;;;;;3.47;3.17;;;;;;;3.10;100.00;96908.38;4940133;28;20207;-70
2021/12/25 09:57:27;;;;;;;3.80;3.50;;;;;;;3.03;100.00;96913.41;4938114;28;20536;-73
2021/12/25 09:59:56;;;;;;;3.90;3.60;;;;;;;3.03;100.00;96904.69;4941582;28;20216;-75
2021/12/25 10:02:27;;;;;;;3.63;3.33;;;;;;;2.96;100.00;96906.25;4922413;28;20245;-73
2021/12/25 10:04:58;;;;;;;2.97;2.77;;;;;;;3.00;100.00;96907.59;4953968;28;20314;-72
2021/12/25 10:07:29;;;;;;;2.90;2.70;;;;;;;2.85;100.00;96905.47;4942214;28;20953;-73
2021/12/25 10:10:00;;;;;;;2.50;2.40;;;;;;;2.83;100.00;96909.97;4923859;28;20209;-73
2021/12/25 10:12:32;;;;;;;2.53;2.43;;;;;;;2.71;100.00;96901.50;4945510;28;20222;-72
2021/12/25 10:15:05;;;;;;;2.37;2.27;;;;;;;2.75;100.00;96909.88;4954960;28;20214;-74
2021/12/25 10:17:33;;;;;;;2.47;2.37;;;;;;;2.67;100.00;96909.75;4924705;28;20226;-71
2021/12/25 10:20:11;;;;;;;2.30;2.20;;;;;;;2.61;100.00;96905.91;4940912;28;20222;-72
2021/12/25 10:22:59;;;;;;;2.70;2.60;;;;;;;2.51;100.00;96915.56;4951209;28;20252;-70
2021/12/25 10:25:32;;;;;;;2.60;2.40;;;;;;;2.44;100.00;96912.66;4945054;28;20252;-73
2021/12/25 10:28:02;;;;;;;2.87;2.70;;;;;;;2.44;100.00;96910.06;4942266;28;21021;-73
2021/12/25 10:30:32;;;;;;;2.87;2.73;;;;;;;2.39;100.00;96909.66;4955521;28;20733;-73
2021/12/25 10:33:00;;;;;;;2.70;2.57;;;;;;;2.50;100.00;96917.38;4928206;28;20349;-73
2021/12/25 10:35:29;;;;;;;2.77;2.57;;;;;;;2.55;100.00;96922.16;4957003;28;20211;-72
2021/12/25 10:37:57;;;;;;;3.00;2.80;;;;;;;2.49;100.00;96920.09;4935686;28;21182;-73
2021/12/25 10:40:28;;;;;;;3.30;3.10;;;;;;;2.50;100.00;96916.53;4957714;28;20206;-74
2021/12/25 10:42:58;;;;;;;2.77;2.57;;;;;;;2.28;100.00;96916.69;4935898;28;20336;-73
2021/12/25 10:45:28;;;;;;;3.27;3.07;;;;;;;2.15;100.00;96913.53;4958346;28;20233;-73
2021/12/25 10:48:01;;;;;;;5.20;4.70;;;;;;;2.09;100.00;96916.69;4926837;28;20233;-73
2021/12/25 10:50:34;;;;;;;6.17;4.70;;;;;;;2.03;100.00;96912.84;4958371;28;20206;-73
2021/12/25 10:53:22;;;;;;;2.87;2.67;;;;;;;2.17;100.00;96907.19;4955152;28;20209;-75
2021/12/25 10:55:53;;;;;;;2.57;2.43;;;;;;;2.16;100.00;96908.16;4945548;28;20233;-71
2021/12/25 10:58:26;;;;;;;3.07;2.87;;;;;;;2.05;100.00;96912.69;4936758;28;20221;-74
2021/12/25 11:01:00;;;;;;;3.30;2.90;;;;;;;2.04;100.00;96914.47;4953733;28;20217;-73
2021/12/25 11:03:31;;;;;;;2.27;2.13;;;;;;;1.93;100.00;96912.00;4928240;28;20225;-74
2021/12/25 11:06:06;;;;;;;2.50;2.40;;;;;;;1.91;100.00;96903.47;4953584;28;20460;-74
2021/12/25 11:08:38;;;;;;;1.97;1.87;;;;;;;1.80;100.00;96907.84;4957079;28;20232;-71
2021/12/25 11:11:08;;;;;;;2.67;2.47;;;;;;;1.75;100.00;96904.81;4950159;28;20214;-71
2021/12/25 11:13:39;;;;;;;2.80;2.60;;;;;;;1.75;100.00;96909.22;4946558;28;20218;-71
2021/12/25 11:16:22;;;;;;;2.73;2.63;;;;;;;1.80;100.00;96905.22;4950713;28;20468;-71
2021/12/25 11:19:01;;;;;;;2.50;2.30;;;;;;;1.79;100.00;96905.38;4922191;28;20225;-70
2021/12/25 11:21:32;;;;;;;2.37;2.27;;;;;;;1.70;100.00;96915.66;4957192;28;20207;-73
2021/12/25 11:24:09;;;;;;;3.37;3.07;;;;;;;1.78;100.00;96914.19;4945072;28;20398;-73
2021/12/25 11:26:37;;;;;;;2.67;2.57;;;;;;;1.76;100.00;96916.09;4955788;28;20228;-70
2021/12/25 11:29:08;;;;;;;2.17;2.07;;;;;;;1.61;100.00;96908.63;4936682;28;20369;-73
2021/12/25 11:31:37;;;;;;;2.10;2.00;;;;;;;1.52;100.00;96909.44;4956538;28;20207;-73
2021/12/25 11:34:05;;;;;;;1.97;1.87;;;;;;;1.51;100.00;96913.03;4921308;28;20419;-72
2021/12/25 11:36:38;;;;;;;2.00;1.90;;;;;;;1.69;100.00;96913.19;4955000;28;20619;-71
2021/12/25 11:39:06;;;;;;;2.30;2.20;;;;;;;1.64;100.00;96913.59;4947040;28;20233;-72
2021/12/25 11:41:37;;;;;;;2.27;2.17;;;;;;;1.65;100.00;96911.81;4958903;28;20273;-71
2021/12/25 11:44:08;;;;;;;2.60;2.50;;;;;;;1.61;100.00;96913.84;4948550;28;20271;-73
2021/12/25 11:46:40;;;;;;;2.50;2.00;;;;;;;1.64;100.00;96910.97;4946932;28;20233;-70
2021/12/25 11:49:10;;;;;;;2.93;2.63;;;;;;;1.64;100.00;96912.78;4930311;28;21265;-71
2021/12/25 11:51:42;;;;;;;4.13;2.80;;;;;;;1.53;100.00;96911.09;4956928;28;20202;-70
2021/12/25 11:54:45;;;;;;;3.60;3.00;;;;;;;1.59;100.00;96915.78;4955738;28;20848;-72
2021/12/25 11:57:35;;;;;;;3.03;2.73;;;;;;;1.66;100.00;96908.25;4956256;28;20230;-72
2021/12/25 12:00:04;;;;;;;2.23;2.13;;;;;;;1.64;100.00;96910.97;4946129;28;20203;-75
2021/12/25 12:02:41;;;;;;;3.27;2.23;;;;;;;1.50;100.00;96917.41;4948145;28;20719;-73
2021/12/25 12:05:25;;;;;;;2.17;2.07;;;;;;;1.53;100.00;96916.31;4931401;28;21158;-72
2021/12/25 12:08:07;;;;;;;1.57;1.57;;;;;;;1.52;100.00;96918.13;4953942;28;20848;-70
2021/12/25 12:10:52;;;;;;;2.67;2.20;;;;;;;1.71;100.00;96919.94;4950463;28;20298;-70
2021/12/25 12:13:22;;;;;;;2.90;2.70;;;;;;;1.74;100.00;96916.22;4956447;28;20241;-73
2021/12/25 12:15:52;;;;;;;1.80;1.70;;;;;;;1.65;100.00;96915.25;4937538;28;20230;-72
2021/12/25 12:18:38;;;;;;;2.40;2.30;;;;;;;1.63;100.00;96919.78;4956760;28;20258;-74
2021/12/25 12:21:11;;;;;;;1.77;1.67;;;;;;;1.56;100.00;96916.06;4927293;28;20328;-72
2021/12/25 12:23:54;;;;;;;2.97;2.20;;;;;;;1.55;100.00;96924.84;4955426;28;20249;-70
2021/12/25 12:26:50;;;;;;;3.33;2.60;;;;;;;1.55;100.00;96928.31;4949852;28;20229;-71
2021/12/25 12:29:43;;;;;;;2.90;2.70;;;;;;;1.63;100.00;96932.03;4955409;28;21867;-73
2021/12/25 12:32:32;;;;;;;2.17;2.07;;;;;;;1.58;100.00;96932.41;4945570;28;21301;-73
2021/12/25 12:35:01;;;;;;;1.93;1.83;;;;;;;1.54;100.00;96933.63;4951475;28;20254;-73
2021/12/25 12:37:31;;;;;;;2.50;2.30;;;;;;;1.57;100.00;96934.22;4928997;28;20300;-73
2021/12/25 12:40:25;;;;;;;2.00;1.90;;;;;;;1.56;100.00;96931.72;4952850;28;20202;-73
2021/12/25 12:42:58;;;;;;;2.40;2.30;;;;;;;1.51;100.00;96952.19;4945947;28;20965;-70
2021/12/25 12:45:28;;;;;;;3.27;2.20;;;;;;;1.47;100.00;96958.63;4935737;28;20734;-70